sensor_id;sensor_type;location;lat;lon;timestamp;P1;durP1;ratioP1;P2;durP2;ratioP2
74293;SDS011;64044;59.904;10.738;2022-12-22T00:02:25;5.28;;;2.70;;
74293;SDS011;64044;59.904;10.738;2022-12-22T00:05:14;4.85;;;3.40;;
74293;SDS011;64044;59.904;10.738;2022-12-22T00:08:00;5.13;;;3.20;;
74293;SDS011;64044;59.904;10.738;2022-12-22T00:10:45;5.43;;;3.63;;
74293;SDS011;64044;59.904;10.738;2022-12-22T00:13:30;10.23;;;4.70;;
74293;SDS011;64044;59.904;10.738;2022-12-22T00:16:14;23.95;;;7.30;;
74293;SDS011;64044;59.904;10.738;2022-12-22T00:18:59;25.02;;;8.30;;
74293;SDS011;64044;59.904;10.738;2022-12-22T00:21:43;14.38;;;6.25;;
74293;SDS011;64044;59.904;10.738;2022-12-22T00:24:27;9.93;;;5.40;;
74293;SDS011;64044;59.904;10.738;2022-12-22T00:27:18;8.07;;;4.55;;
74293;SDS011;64044;59.904;10.738;2022-12-22T00:30:11;7.55;;;4.63;;
74293;SDS011;64044;59.904;10.738;2022-12-22T00:32:57;8.48;;;4.28;;
74293;SDS011;64044;59.904;10.738;2022-12-22T00:35:42;8.73;;;4.00;;
74293;SDS011;64044;59.904;10.738;2022-12-22T00:38:26;9.35;;;5.32;;
74293;SDS011;64044;59.904;10.738;2022-12-22T00:41:11;9.73;;;5.35;;
74293;SDS011;64044;59.904;10.738;2022-12-22T00:43:55;12.93;;;5.43;;
74293;SDS011;64044;59.904;10.738;2022-12-22T00:46:39;12.07;;;4.80;;
74293;SDS011;64044;59.904;10.738;2022-12-22T00:49:25;8.15;;;4.10;;
74293;SDS011;64044;59.904;10.738;2022-12-22T00:52:10;6.32;;;3.95;;
74293;SDS011;64044;59.904;10.738;2022-12-22T00:54:55;5.32;;;2.63;;
74293;SDS011;64044;59.904;10.738;2022-12-22T00:57:40;4.30;;;2.60;;
74293;SDS011;64044;59.904;10.738;2022-12-22T01:00:26;6.30;;;2.70;;
74293;SDS011;64044;59.904;10.738;2022-12-22T01:03:10;5.07;;;2.97;;
74293;SDS011;64044;59.904;10.738;2022-12-22T01:05:55;8.48;;;3.05;;
74293;SDS011;64044;59.904;10.738;2022-12-22T01:08:43;8.35;;;3.20;;
74293;SDS011;64044;59.904;10.738;2022-12-22T01:11:28;4.47;;;3.15;;
74293;SDS011;64044;59.904;10.738;2022-12-22T01:14:13;4.93;;;2.40;;
74293;SDS011;64044;59.904;10.738;2022-12-22T01:16:58;6.38;;;2.30;;
74293;SDS011;64044;59.904;10.738;2022-12-22T01:19:42;5.35;;;3.15;;
74293;SDS011;64044;59.904;10.738;2022-12-22T01:22:27;8.20;;;4.05;;
74293;SDS011;64044;59.904;10.738;2022-12-22T01:25:15;7.13;;;4.28;;
74293;SDS011;64044;59.904;10.738;2022-12-22T01:28:01;6.90;;;4.93;;
74293;SDS011;64044;59.904;10.738;2022-12-22T01:30:46;9.82;;;4.03;;
74293;SDS011;64044;59.904;10.738;2022-12-22T01:33:30;9.88;;;3.63;;
74293;SDS011;64044;59.904;10.738;2022-12-22T01:36:15;8.18;;;4.43;;
74293;SDS011;64044;59.904;10.738;2022-12-22T01:38:59;4.55;;;2.95;;
74293;SDS011;64044;59.904;10.738;2022-12-22T01:41:45;4.80;;;2.75;;
74293;SDS011;64044;59.904;10.738;2022-12-22T01:44:30;7.00;;;3.95;;
74293;SDS011;64044;59.904;10.738;2022-12-22T01:50:23;8.18;;;4.55;;
74293;SDS011;64044;59.904;10.738;2022-12-22T01:53:14;9.10;;;3.75;;
74293;SDS011;64044;59.904;10.738;2022-12-22T01:56:01;4.93;;;2.88;;
74293;SDS011;64044;59.904;10.738;2022-12-22T01:58:48;4.93;;;3.33;;
74293;SDS011;64044;59.904;10.738;2022-12-22T02:01:36;5.20;;;2.50;;
74293;SDS011;64044;59.904;10.738;2022-12-22T02:04:22;4.43;;;2.53;;
74293;SDS011;64044;59.904;10.738;2022-12-22T02:07:15;5.43;;;3.45;;
74293;SDS011;64044;59.904;10.738;2022-12-22T02:10:27;5.32;;;2.63;;
74293;SDS011;64044;59.904;10.738;2022-12-22T02:23:24;6.78;;;4.15;;
74293;SDS011;64044;59.904;10.738;2022-12-22T02:26:32;6.03;;;4.07;;
74293;SDS011;64044;59.904;10.738;2022-12-22T02:29:28;7.32;;;4.18;;
74293;SDS011;64044;59.904;10.738;2022-12-22T02:35:00;6.85;;;2.78;;
74293;SDS011;64044;59.904;10.738;2022-12-22T02:44:19;10.32;;;2.17;;
74293;SDS011;64044;59.904;10.738;2022-12-22T02:50:40;8.80;;;1.95;;
74293;SDS011;64044;59.904;10.738;2022-12-22T02:53:29;10.30;;;2.22;;
74293;SDS011;64044;59.904;10.738;2022-12-22T02:56:15;9.93;;;2.30;;
74293;SDS011;64044;59.904;10.738;2022-12-22T02:58:59;7.72;;;1.80;;
74293;SDS011;64044;59.904;10.738;2022-12-22T03:01:44;9.10;;;3.13;;
74293;SDS011;64044;59.904;10.738;2022-12-22T03:04:29;6.65;;;3.28;;
74293;SDS011;64044;59.904;10.738;2022-12-22T03:07:13;8.70;;;3.63;;
74293;SDS011;64044;59.904;10.738;2022-12-22T03:09:58;15.27;;;5.00;;
74293;SDS011;64044;59.904;10.738;2022-12-22T03:12:42;10.65;;;4.55;;
74293;SDS011;64044;59.904;10.738;2022-12-22T03:15:26;7.60;;;4.43;;
74293;SDS011;64044;59.904;10.738;2022-12-22T03:18:10;14.88;;;4.47;;
74293;SDS011;64044;59.904;10.738;2022-12-22T03:20:55;5.55;;;3.33;;
74293;SDS011;64044;59.904;10.738;2022-12-22T03:23:40;9.25;;;3.28;;
74293;SDS011;64044;59.904;10.738;2022-12-22T03:26:25;11.43;;;4.32;;
74293;SDS011;64044;59.904;10.738;2022-12-22T03:28:51;10.57;;;4.07;;
74293;SDS011;64044;59.904;10.738;2022-12-22T03:31:17;8.02;;;4.10;;
74293;SDS011;64044;59.904;10.738;2022-12-22T03:33:42;6.82;;;3.13;;
74293;SDS011;64044;59.904;10.738;2022-12-22T03:36:08;8.50;;;3.42;;
74293;SDS011;64044;59.904;10.738;2022-12-22T03:38:35;6.45;;;3.15;;
74293;SDS011;64044;59.904;10.738;2022-12-22T03:41:00;6.75;;;3.60;;
74293;SDS011;64044;59.904;10.738;2022-12-22T03:43:26;9.98;;;3.72;;
74293;SDS011;64044;59.904;10.738;2022-12-22T03:46:12;7.38;;;3.40;;
74293;SDS011;64044;59.904;10.738;2022-12-22T03:48:58;9.15;;;3.40;;
74293;SDS011;64044;59.904;10.738;2022-12-22T03:51:38;5.03;;;2.80;;
74293;SDS011;64044;59.904;10.738;2022-12-22T03:54:08;10.27;;;2.95;;
74293;SDS011;64044;59.904;10.738;2022-12-22T03:56:36;7.25;;;2.97;;
74293;SDS011;64044;59.904;10.738;2022-12-22T03:59:02;6.93;;;3.20;;
74293;SDS011;64044;59.904;10.738;2022-12-22T04:01:28;5.82;;;2.50;;
74293;SDS011;64044;59.904;10.738;2022-12-22T04:03:54;3.90;;;2.45;;
74293;SDS011;64044;59.904;10.738;2022-12-22T04:06:20;8.48;;;2.90;;
74293;SDS011;64044;59.904;10.738;2022-12-22T04:08:45;6.72;;;2.45;;
74293;SDS011;64044;59.904;10.738;2022-12-22T04:11:12;7.80;;;3.30;;
74293;SDS011;64044;59.904;10.738;2022-12-22T04:13:57;6.80;;;3.40;;
74293;SDS011;64044;59.904;10.738;2022-12-22T04:16:23;8.90;;;3.35;;
74293;SDS011;64044;59.904;10.738;2022-12-22T04:18:49;14.63;;;4.38;;
74293;SDS011;64044;59.904;10.738;2022-12-22T04:21:15;8.98;;;3.13;;
74293;SDS011;64044;59.904;10.738;2022-12-22T04:23:41;8.13;;;3.80;;
74293;SDS011;64044;59.904;10.738;2022-12-22T04:26:07;13.15;;;4.43;;
74293;SDS011;64044;59.904;10.738;2022-12-22T04:28:33;9.32;;;3.67;;
74293;SDS011;64044;59.904;10.738;2022-12-22T04:30:58;10.32;;;3.53;;
74293;SDS011;64044;59.904;10.738;2022-12-22T04:33:24;9.93;;;3.65;;
74293;SDS011;64044;59.904;10.738;2022-12-22T04:35:50;7.85;;;3.65;;
74293;SDS011;64044;59.904;10.738;2022-12-22T04:38:16;9.40;;;3.78;;
74293;SDS011;64044;59.904;10.738;2022-12-22T04:40:42;7.03;;;3.58;;
74293;SDS011;64044;59.904;10.738;2022-12-22T04:43:07;5.35;;;2.75;;
74293;SDS011;64044;59.904;10.738;2022-12-22T04:45:33;4.45;;;2.80;;
74293;SDS011;64044;59.904;10.738;2022-12-22T04:47:59;10.75;;;4.25;;
74293;SDS011;64044;59.904;10.738;2022-12-22T04:50:24;11.50;;;4.18;;
74293;SDS011;64044;59.904;10.738;2022-12-22T04:52:50;6.97;;;3.38;;
74293;SDS011;64044;59.904;10.738;2022-12-22T04:55:16;9.75;;;3.30;;
74293;SDS011;64044;59.904;10.738;2022-12-22T04:57:42;6.05;;;2.78;;
74293;SDS011;64044;59.904;10.738;2022-12-22T05:00:08;6.60;;;3.78;;
74293;SDS011;64044;59.904;10.738;2022-12-22T05:02:34;11.93;;;4.07;;
74293;SDS011;64044;59.904;10.738;2022-12-22T05:05:00;16.48;;;4.63;;
74293;SDS011;64044;59.904;10.738;2022-12-22T05:07:25;10.82;;;4.53;;
74293;SDS011;64044;59.904;10.738;2022-12-22T05:09:51;6.32;;;4.10;;
74293;SDS011;64044;59.904;10.738;2022-12-22T05:12:17;9.52;;;5.43;;
74293;SDS011;64044;59.904;10.738;2022-12-22T05:15:01;17.67;;;7.47;;
74293;SDS011;64044;59.904;10.738;2022-12-22T05:17:27;12.85;;;6.30;;
74293;SDS011;64044;59.904;10.738;2022-12-22T05:19:53;14.38;;;6.32;;
74293;SDS011;64044;59.904;10.738;2022-12-22T05:22:18;9.27;;;5.18;;
74293;SDS011;64044;59.904;10.738;2022-12-22T05:24:44;5.25;;;3.60;;
74293;SDS011;64044;59.904;10.738;2022-12-22T05:27:10;7.68;;;3.92;;
74293;SDS011;64044;59.904;10.738;2022-12-22T05:29:36;9.63;;;5.18;;
74293;SDS011;64044;59.904;10.738;2022-12-22T05:32:02;9.98;;;5.85;;
74293;SDS011;64044;59.904;10.738;2022-12-22T05:34:28;15.20;;;7.07;;
74293;SDS011;64044;59.904;10.738;2022-12-22T05:36:53;16.20;;;6.20;;
74293;SDS011;64044;59.904;10.738;2022-12-22T05:39:19;9.80;;;5.68;;
74293;SDS011;64044;59.904;10.738;2022-12-22T05:41:45;10.75;;;5.68;;
74293;SDS011;64044;59.904;10.738;2022-12-22T05:44:11;10.20;;;6.15;;
74293;SDS011;64044;59.904;10.738;2022-12-22T05:46:36;10.98;;;6.63;;
74293;SDS011;64044;59.904;10.738;2022-12-22T05:49:02;10.07;;;6.13;;
74293;SDS011;64044;59.904;10.738;2022-12-22T05:51:28;11.40;;;5.90;;
74293;SDS011;64044;59.904;10.738;2022-12-22T05:53:53;8.32;;;4.65;;
74293;SDS011;64044;59.904;10.738;2022-12-22T05:56:19;12.10;;;5.30;;
74293;SDS011;64044;59.904;10.738;2022-12-22T05:58:45;8.35;;;5.20;;
74293;SDS011;64044;59.904;10.738;2022-12-22T06:01:10;7.82;;;3.83;;
74293;SDS011;64044;59.904;10.738;2022-12-22T06:03:36;8.70;;;4.10;;
74293;SDS011;64044;59.904;10.738;2022-12-22T06:06:02;11.50;;;4.38;;
74293;SDS011;64044;59.904;10.738;2022-12-22T06:08:28;7.85;;;4.43;;
74293;SDS011;64044;59.904;10.738;2022-12-22T06:10:54;15.85;;;4.15;;
74293;SDS011;64044;59.904;10.738;2022-12-22T06:13:22;7.30;;;4.25;;
74293;SDS011;64044;59.904;10.738;2022-12-22T06:15:48;9.68;;;4.38;;
74293;SDS011;64044;59.904;10.738;2022-12-22T06:18:13;12.00;;;4.95;;
74293;SDS011;64044;59.904;10.738;2022-12-22T06:20:39;7.00;;;3.80;;
74293;SDS011;64044;59.904;10.738;2022-12-22T06:23:05;9.45;;;4.47;;
74293;SDS011;64044;59.904;10.738;2022-12-22T06:25:31;9.60;;;4.20;;
74293;SDS011;64044;59.904;10.738;2022-12-22T06:27:57;9.48;;;4.10;;
74293;SDS011;64044;59.904;10.738;2022-12-22T06:30:23;9.02;;;4.40;;
74293;SDS011;64044;59.904;10.738;2022-12-22T06:32:48;8.40;;;3.90;;
74293;SDS011;64044;59.904;10.738;2022-12-22T06:35:14;8.10;;;4.75;;
74293;SDS011;64044;59.904;10.738;2022-12-22T06:37:40;9.38;;;5.13;;
74293;SDS011;64044;59.904;10.738;2022-12-22T06:40:06;8.63;;;4.22;;
74293;SDS011;64044;59.904;10.738;2022-12-22T06:42:33;7.82;;;4.13;;
74293;SDS011;64044;59.904;10.738;2022-12-22T06:45:17;10.30;;;4.05;;
74293;SDS011;64044;59.904;10.738;2022-12-22T06:47:43;8.45;;;4.32;;
74293;SDS011;64044;59.904;10.738;2022-12-22T06:50:09;9.23;;;4.47;;
74293;SDS011;64044;59.904;10.738;2022-12-22T06:52:35;7.63;;;4.15;;
74293;SDS011;64044;59.904;10.738;2022-12-22T06:55:00;5.25;;;3.38;;
74293;SDS011;64044;59.904;10.738;2022-12-22T06:57:27;9.02;;;4.32;;
74293;SDS011;64044;59.904;10.738;2022-12-22T06:59:53;7.47;;;3.85;;
74293;SDS011;64044;59.904;10.738;2022-12-22T07:02:18;13.35;;;5.78;;
74293;SDS011;64044;59.904;10.738;2022-12-22T07:04:44;13.27;;;5.28;;
74293;SDS011;64044;59.904;10.738;2022-12-22T07:07:10;11.27;;;5.85;;
74293;SDS011;64044;59.904;10.738;2022-12-22T07:09:36;21.35;;;8.00;;
74293;SDS011;64044;59.904;10.738;2022-12-22T07:12:01;38.60;;;17.13;;
74293;SDS011;64044;59.904;10.738;2022-12-22T07:14:27;39.65;;;15.13;;
74293;SDS011;64044;59.904;10.738;2022-12-22T07:16:53;29.23;;;13.75;;
74293;SDS011;64044;59.904;10.738;2022-12-22T07:19:19;31.80;;;14.13;;
74293;SDS011;64044;59.904;10.738;2022-12-22T07:21:44;23.67;;;11.55;;
74293;SDS011;64044;59.904;10.738;2022-12-22T07:24:12;18.92;;;9.05;;
74293;SDS011;64044;59.904;10.738;2022-12-22T07:26:38;18.92;;;7.38;;
74293;SDS011;64044;59.904;10.738;2022-12-22T07:29:04;12.75;;;6.00;;
74293;SDS011;64044;59.904;10.738;2022-12-22T07:31:29;18.27;;;8.80;;
74293;SDS011;64044;59.904;10.738;2022-12-22T07:33:55;11.45;;;6.03;;
74293;SDS011;64044;59.904;10.738;2022-12-22T07:36:21;9.60;;;5.28;;
74293;SDS011;64044;59.904;10.738;2022-12-22T07:38:47;15.40;;;6.22;;
74293;SDS011;64044;59.904;10.738;2022-12-22T07:41:14;12.32;;;5.78;;
74293;SDS011;64044;59.904;10.738;2022-12-22T07:44:00;7.53;;;4.25;;
74293;SDS011;64044;59.904;10.738;2022-12-22T07:46:28;12.40;;;4.80;;
74293;SDS011;64044;59.904;10.738;2022-12-22T07:48:55;7.63;;;4.38;;
74293;SDS011;64044;59.904;10.738;2022-12-22T07:51:40;8.52;;;3.83;;
74293;SDS011;64044;59.904;10.738;2022-12-22T07:54:06;13.48;;;5.95;;
74293;SDS011;64044;59.904;10.738;2022-12-22T07:56:34;15.45;;;6.50;;
74293;SDS011;64044;59.904;10.738;2022-12-22T07:58:59;11.98;;;6.88;;
74293;SDS011;64044;59.904;10.738;2022-12-22T08:01:25;13.77;;;6.88;;
74293;SDS011;64044;59.904;10.738;2022-12-22T08:03:51;12.95;;;6.65;;
74293;SDS011;64044;59.904;10.738;2022-12-22T08:06:17;12.52;;;6.13;;
74293;SDS011;64044;59.904;10.738;2022-12-22T08:08:43;14.45;;;7.07;;
74293;SDS011;64044;59.904;10.738;2022-12-22T08:11:08;12.27;;;5.82;;
74293;SDS011;64044;59.904;10.738;2022-12-22T08:13:34;7.40;;;4.57;;
74293;SDS011;64044;59.904;10.738;2022-12-22T08:16:01;9.55;;;4.72;;
74293;SDS011;64044;59.904;10.738;2022-12-22T08:18:29;12.70;;;5.30;;
74293;SDS011;64044;59.904;10.738;2022-12-22T08:20:55;10.13;;;5.20;;
74293;SDS011;64044;59.904;10.738;2022-12-22T08:23:20;13.50;;;5.43;;
74293;SDS011;64044;59.904;10.738;2022-12-22T08:25:47;10.40;;;4.90;;
74293;SDS011;64044;59.904;10.738;2022-12-22T08:28:16;14.38;;;5.13;;
74293;SDS011;64044;59.904;10.738;2022-12-22T08:30:42;13.85;;;5.57;;
74293;SDS011;64044;59.904;10.738;2022-12-22T08:33:09;9.40;;;4.60;;
74293;SDS011;64044;59.904;10.738;2022-12-22T08:35:35;12.27;;;5.65;;
74293;SDS011;64044;59.904;10.738;2022-12-22T08:38:01;14.82;;;5.68;;
74293;SDS011;64044;59.904;10.738;2022-12-22T08:40:27;13.35;;;6.05;;
74293;SDS011;64044;59.904;10.738;2022-12-22T08:42:57;14.70;;;5.85;;
74293;SDS011;64044;59.904;10.738;2022-12-22T08:45:28;14.85;;;7.22;;
74293;SDS011;64044;59.904;10.738;2022-12-22T08:47:55;14.77;;;7.40;;
74293;SDS011;64044;59.904;10.738;2022-12-22T08:50:21;14.95;;;7.85;;
74293;SDS011;64044;59.904;10.738;2022-12-22T08:52:47;17.08;;;7.70;;
74293;SDS011;64044;59.904;10.738;2022-12-22T08:55:12;17.95;;;8.20;;
74293;SDS011;64044;59.904;10.738;2022-12-22T08:57:38;16.27;;;7.63;;
74293;SDS011;64044;59.904;10.738;2022-12-22T09:00:06;19.30;;;8.00;;
74293;SDS011;64044;59.904;10.738;2022-12-22T09:02:34;11.32;;;7.07;;
74293;SDS011;64044;59.904;10.738;2022-12-22T09:05:00;15.07;;;8.30;;
74293;SDS011;64044;59.904;10.738;2022-12-22T09:07:26;15.85;;;8.07;;
74293;SDS011;64044;59.904;10.738;2022-12-22T09:09:52;13.52;;;7.22;;
74293;SDS011;64044;59.904;10.738;2022-12-22T09:12:18;15.85;;;8.27;;
74293;SDS011;64044;59.904;10.738;2022-12-22T09:14:44;21.25;;;9.52;;
74293;SDS011;64044;59.904;10.738;2022-12-22T09:17:10;18.73;;;9.65;;
74293;SDS011;64044;59.904;10.738;2022-12-22T09:19:36;20.90;;;8.98;;
74293;SDS011;64044;59.904;10.738;2022-12-22T09:22:01;18.08;;;8.63;;
74293;SDS011;64044;59.904;10.738;2022-12-22T09:24:27;19.63;;;8.80;;
74293;SDS011;64044;59.904;10.738;2022-12-22T09:26:53;13.98;;;7.75;;
74293;SDS011;64044;59.904;10.738;2022-12-22T09:29:19;17.17;;;8.13;;
74293;SDS011;64044;59.904;10.738;2022-12-22T09:31:44;14.45;;;7.80;;
74293;SDS011;64044;59.904;10.738;2022-12-22T09:34:10;15.93;;;8.00;;
74293;SDS011;64044;59.904;10.738;2022-12-22T09:36:38;14.85;;;7.47;;
74293;SDS011;64044;59.904;10.738;2022-12-22T09:39:05;12.25;;;7.20;;
74293;SDS011;64044;59.904;10.738;2022-12-22T09:41:34;18.20;;;9.23;;
74293;SDS011;64044;59.904;10.738;2022-12-22T09:46:46;16.85;;;7.90;;
74293;SDS011;64044;59.904;10.738;2022-12-22T09:49:14;17.15;;;9.07;;
74293;SDS011;64044;59.904;10.738;2022-12-22T09:51:46;14.90;;;7.68;;
74293;SDS011;64044;59.904;10.738;2022-12-22T09:54:18;15.15;;;6.60;;
74293;SDS011;64044;59.904;10.738;2022-12-22T09:56:44;12.45;;;6.43;;
74293;SDS011;64044;59.904;10.738;2022-12-22T09:59:17;12.27;;;6.50;;
74293;SDS011;64044;59.904;10.738;2022-12-22T10:04:59;13.77;;;7.75;;
74293;SDS011;64044;59.904;10.738;2022-12-22T10:07:36;18.90;;;9.55;;
74293;SDS011;64044;59.904;10.738;2022-12-22T10:12:32;20.25;;;10.23;;
74293;SDS011;64044;59.904;10.738;2022-12-22T10:14:58;20.25;;;10.20;;
74293;SDS011;64044;59.904;10.738;2022-12-22T10:17:28;20.83;;;9.88;;
74293;SDS011;64044;59.904;10.738;2022-12-22T10:22:57;20.33;;;9.27;;
74293;SDS011;64044;59.904;10.738;2022-12-22T10:28:09;20.10;;;8.95;;
74293;SDS011;64044;59.904;10.738;2022-12-22T10:30:41;20.83;;;9.68;;
74293;SDS011;64044;59.904;10.738;2022-12-22T10:33:08;24.05;;;10.43;;
74293;SDS011;64044;59.904;10.738;2022-12-22T10:41:19;29.08;;;11.30;;
74293;SDS011;64044;59.904;10.738;2022-12-22T10:43:51;27.40;;;10.57;;
74293;SDS011;64044;59.904;10.738;2022-12-22T10:46:26;21.38;;;10.48;;
74293;SDS011;64044;59.904;10.738;2022-12-22T10:51:47;34.95;;;12.32;;
74293;SDS011;64044;59.904;10.738;2022-12-22T10:54:33;29.92;;;11.82;;
74293;SDS011;64044;59.904;10.738;2022-12-22T10:57:01;21.67;;;9.32;;
74293;SDS011;64044;59.904;10.738;2022-12-22T10:59:27;20.27;;;8.95;;
74293;SDS011;64044;59.904;10.738;2022-12-22T11:01:53;31.85;;;13.30;;
74293;SDS011;64044;59.904;10.738;2022-12-22T11:04:25;27.40;;;12.32;;
74293;SDS011;64044;59.904;10.738;2022-12-22T11:06:52;22.33;;;11.00;;
74293;SDS011;64044;59.904;10.738;2022-12-22T11:09:19;19.58;;;10.52;;
74293;SDS011;64044;59.904;10.738;2022-12-22T11:11:53;23.50;;;10.60;;
74293;SDS011;64044;59.904;10.738;2022-12-22T11:14:36;28.15;;;10.32;;
74293;SDS011;64044;59.904;10.738;2022-12-22T11:17:16;24.15;;;10.07;;
74293;SDS011;64044;59.904;10.738;2022-12-22T11:25:39;21.98;;;9.93;;
74293;SDS011;64044;59.904;10.738;2022-12-22T11:28:36;23.05;;;9.25;;
74293;SDS011;64044;59.904;10.738;2022-12-22T11:34:01;22.00;;;9.48;;
74293;SDS011;64044;59.904;10.738;2022-12-22T11:39:53;16.48;;;8.18;;
74293;SDS011;64044;59.904;10.738;2022-12-22T11:44:56;15.48;;;7.70;;
74293;SDS011;64044;59.904;10.738;2022-12-22T11:47:46;14.38;;;6.45;;
74293;SDS011;64044;59.904;10.738;2022-12-22T12:04:41;10.60;;;4.18;;
74293;SDS011;64044;59.904;10.738;2022-12-22T12:12:41;6.90;;;3.20;;
74293;SDS011;64044;59.904;10.738;2022-12-22T12:15:18;8.38;;;3.20;;
74293;SDS011;64044;59.904;10.738;2022-12-22T12:26:26;10.32;;;3.22;;
74293;SDS011;64044;59.904;10.738;2022-12-22T12:31:41;6.85;;;2.47;;
74293;SDS011;64044;59.904;10.738;2022-12-22T12:34:28;4.93;;;2.40;;
74293;SDS011;64044;59.904;10.738;2022-12-22T12:37:01;7.25;;;2.60;;
74293;SDS011;64044;59.904;10.738;2022-12-22T12:44:53;6.57;;;3.00;;
74293;SDS011;64044;59.904;10.738;2022-12-22T12:47:32;6.53;;;2.50;;
74293;SDS011;64044;59.904;10.738;2022-12-22T12:57:50;7.07;;;2.75;;
74293;SDS011;64044;59.904;10.738;2022-12-22T13:03:02;5.95;;;3.20;;
74293;SDS011;64044;59.904;10.738;2022-12-22T13:15:48;7.28;;;3.33;;
74293;SDS011;64044;59.904;10.738;2022-12-22T13:21:20;7.07;;;3.72;;
74293;SDS011;64044;59.904;10.738;2022-12-22T13:26:24;9.93;;;3.30;;
74293;SDS011;64044;59.904;10.738;2022-12-22T13:31:44;9.20;;;3.60;;
74293;SDS011;64044;59.904;10.738;2022-12-22T13:47:52;4.50;;;1.90;;
74293;SDS011;64044;59.904;10.738;2022-12-22T13:50:19;3.65;;;2.53;;
74293;SDS011;64044;59.904;10.738;2022-12-22T13:52:55;2.20;;;1.73;;
74293;SDS011;64044;59.904;10.738;2022-12-22T13:55:25;3.38;;;1.70;;
74293;SDS011;64044;59.904;10.738;2022-12-22T13:57:53;2.60;;;1.60;;
74293;SDS011;64044;59.904;10.738;2022-12-22T14:00:24;3.25;;;1.63;;
74293;SDS011;64044;59.904;10.738;2022-12-22T14:02:51;4.00;;;1.80;;
74293;SDS011;64044;59.904;10.738;2022-12-22T14:05:17;3.08;;;1.73;;
74293;SDS011;64044;59.904;10.738;2022-12-22T14:10:40;4.50;;;2.13;;
74293;SDS011;64044;59.904;10.738;2022-12-22T14:13:12;3.40;;;1.85;;
74293;SDS011;64044;59.904;10.738;2022-12-22T14:15:41;4.85;;;1.92;;
74293;SDS011;64044;59.904;10.738;2022-12-22T14:18:15;2.92;;;1.60;;
74293;SDS011;64044;59.904;10.738;2022-12-22T14:20:45;3.33;;;1.88;;
74293;SDS011;64044;59.904;10.738;2022-12-22T14:23:15;3.00;;;1.88;;
74293;SDS011;64044;59.904;10.738;2022-12-22T14:25:58;4.18;;;2.53;;
74293;SDS011;64044;59.904;10.738;2022-12-22T14:30:57;3.55;;;2.10;;
74293;SDS011;64044;59.904;10.738;2022-12-22T14:33:26;3.45;;;2.00;;
74293;SDS011;64044;59.904;10.738;2022-12-22T14:38:51;14.68;;;2.28;;
74293;SDS011;64044;59.904;10.738;2022-12-22T14:44:22;3.83;;;1.90;;
74293;SDS011;64044;59.904;10.738;2022-12-22T14:49:28;3.97;;;1.67;;
74293;SDS011;64044;59.904;10.738;2022-12-22T14:51:59;4.43;;;1.98;;
74293;SDS011;64044;59.904;10.738;2022-12-22T14:54:32;3.67;;;2.20;;
74293;SDS011;64044;59.904;10.738;2022-12-22T14:57:02;4.53;;;2.15;;
74293;SDS011;64044;59.904;10.738;2022-12-22T14:59:33;3.42;;;2.15;;
74293;SDS011;64044;59.904;10.738;2022-12-22T15:02:16;3.25;;;2.10;;
74293;SDS011;64044;59.904;10.738;2022-12-22T15:05:05;3.22;;;1.55;;
74293;SDS011;64044;59.904;10.738;2022-12-22T15:10:22;2.40;;;1.75;;
74293;SDS011;64044;59.904;10.738;2022-12-22T15:12:50;3.13;;;2.13;;
74293;SDS011;64044;59.904;10.738;2022-12-22T15:15:21;3.15;;;1.75;;
74293;SDS011;64044;59.904;10.738;2022-12-22T15:17:48;3.70;;;1.83;;
74293;SDS011;64044;59.904;10.738;2022-12-22T15:20:23;5.05;;;2.83;;
74293;SDS011;64044;59.904;10.738;2022-12-22T15:22:50;3.28;;;2.05;;
74293;SDS011;64044;59.904;10.738;2022-12-22T15:25:17;3.28;;;1.70;;
74293;SDS011;64044;59.904;10.738;2022-12-22T15:27:45;2.63;;;1.70;;
74293;SDS011;64044;59.904;10.738;2022-12-22T15:30:12;2.88;;;1.80;;
74293;SDS011;64044;59.904;10.738;2022-12-22T15:35:41;2.17;;;1.15;;
74293;SDS011;64044;59.904;10.738;2022-12-22T15:38:00;1.10;;;0.90;;
74293;SDS011;64044;59.904;10.738;2022-12-22T15:40:26;1.70;;;0.93;;
74293;SDS011;64044;59.904;10.738;2022-12-22T15:42:52;1.45;;;1.27;;
74293;SDS011;64044;59.904;10.738;2022-12-22T15:45:19;2.80;;;1.35;;
74293;SDS011;64044;59.904;10.738;2022-12-22T15:47:52;2.20;;;1.30;;
74293;SDS011;64044;59.904;10.738;2022-12-22T15:50:20;2.35;;;1.23;;
74293;SDS011;64044;59.904;10.738;2022-12-22T15:52:52;2.28;;;1.25;;
74293;SDS011;64044;59.904;10.738;2022-12-22T15:55:19;2.78;;;1.40;;
74293;SDS011;64044;59.904;10.738;2022-12-22T15:57:47;2.28;;;1.65;;
74293;SDS011;64044;59.904;10.738;2022-12-22T16:00:15;3.20;;;2.20;;
74293;SDS011;64044;59.904;10.738;2022-12-22T16:02:41;3.38;;;2.00;;
74293;SDS011;64044;59.904;10.738;2022-12-22T16:05:07;2.80;;;1.80;;
74293;SDS011;64044;59.904;10.738;2022-12-22T16:07:34;1.85;;;1.20;;
74293;SDS011;64044;59.904;10.738;2022-12-22T16:10:00;3.22;;;1.50;;
74293;SDS011;64044;59.904;10.738;2022-12-22T16:12:28;1.30;;;1.05;;
74293;SDS011;64044;59.904;10.738;2022-12-22T16:14:55;1.67;;;1.13;;
74293;SDS011;64044;59.904;10.738;2022-12-22T16:17:25;2.75;;;1.20;;
74293;SDS011;64044;59.904;10.738;2022-12-22T16:19:52;1.88;;;1.00;;
74293;SDS011;64044;59.904;10.738;2022-12-22T16:22:19;2.30;;;1.10;;
74293;SDS011;64044;59.904;10.738;2022-12-22T16:24:54;1.27;;;1.00;;
74293;SDS011;64044;59.904;10.738;2022-12-22T16:27:20;1.45;;;1.05;;
74293;SDS011;64044;59.904;10.738;2022-12-22T16:29:47;1.40;;;1.00;;
74293;SDS011;64044;59.904;10.738;2022-12-22T16:32:29;1.40;;;0.80;;
74293;SDS011;64044;59.904;10.738;2022-12-22T16:35:05;1.65;;;1.02;;
74293;SDS011;64044;59.904;10.738;2022-12-22T16:37:41;1.45;;;1.00;;
74293;SDS011;64044;59.904;10.738;2022-12-22T16:40:08;5.78;;;1.45;;
74293;SDS011;64044;59.904;10.738;2022-12-22T16:42:34;2.83;;;1.20;;
74293;SDS011;64044;59.904;10.738;2022-12-22T16:45:01;2.22;;;1.35;;
74293;SDS011;64044;59.904;10.738;2022-12-22T16:47:33;2.50;;;1.15;;
74293;SDS011;64044;59.904;10.738;2022-12-22T16:50:00;1.88;;;1.27;;
74293;SDS011;64044;59.904;10.738;2022-12-22T16:52:35;1.83;;;1.10;;
74293;SDS011;64044;59.904;10.738;2022-12-22T16:55:23;1.48;;;1.38;;
74293;SDS011;64044;59.904;10.738;2022-12-22T16:57:48;2.05;;;1.58;;
74293;SDS011;64044;59.904;10.738;2022-12-22T17:00:15;2.55;;;1.70;;
74293;SDS011;64044;59.904;10.738;2022-12-22T17:02:47;2.47;;;1.70;;
74293;SDS011;64044;59.904;10.738;2022-12-22T17:05:35;3.17;;;1.75;;
74293;SDS011;64044;59.904;10.738;2022-12-22T17:08:04;3.35;;;2.05;;
74293;SDS011;64044;59.904;10.738;2022-12-22T17:10:32;4.57;;;1.92;;
74293;SDS011;64044;59.904;10.738;2022-12-22T17:12:58;4.20;;;2.15;;
74293;SDS011;64044;59.904;10.738;2022-12-22T17:15:25;2.53;;;1.60;;
74293;SDS011;64044;59.904;10.738;2022-12-22T17:17:51;3.13;;;2.10;;
74293;SDS011;64044;59.904;10.738;2022-12-22T17:20:18;2.50;;;1.60;;
74293;SDS011;64044;59.904;10.738;2022-12-22T17:22:50;2.35;;;1.77;;
74293;SDS011;64044;59.904;10.738;2022-12-22T17:25:20;3.08;;;1.90;;
74293;SDS011;64044;59.904;10.738;2022-12-22T17:27:48;3.70;;;2.20;;
74293;SDS011;64044;59.904;10.738;2022-12-22T17:30:15;4.35;;;2.13;;
74293;SDS011;64044;59.904;10.738;2022-12-22T17:32:42;3.35;;;1.95;;
74293;SDS011;64044;59.904;10.738;2022-12-22T17:35:15;3.38;;;2.03;;
74293;SDS011;64044;59.904;10.738;2022-12-22T17:37:43;2.83;;;2.08;;
74293;SDS011;64044;59.904;10.738;2022-12-22T17:40:14;2.25;;;1.77;;